createdAt,value
2018-07-23T00:01:27.631Z,31.30
2018-07-23T00:03:56.607Z,32.93
2018-07-23T00:06:25.193Z,34.83
2018-07-23T00:08:53.787Z,30.60
2018-07-23T00:11:22.719Z,35.40
2018-07-23T00:13:51.308Z,30.07
2018-07-23T00:16:19.864Z,30.23
2018-07-23T00:18:48.457Z,33.93
2018-07-23T00:21:17.038Z,31.70
2018-07-23T00:23:45.622Z,32.10
2018-07-23T00:26:14.553Z,32.23
2018-07-23T00:28:43.119Z,33.13
2018-07-23T00:31:11.704Z,31.20
2018-07-23T00:33:40.423Z,32.07
2018-07-23T00:36:09.007Z,32.90
2018-07-23T00:38:37.572Z,34.43
2018-07-23T00:41:06.432Z,36.83
2018-07-23T00:43:35.256Z,41.97
2018-07-23T00:46:03.889Z,34.13
2018-07-23T00:48:32.606Z,30.73
2018-07-23T00:51:01.188Z,30.53
2018-07-23T00:53:29.724Z,30.43
2018-07-23T00:55:58.723Z,29.37
2018-07-23T00:58:27.551Z,32.80
2018-07-23T01:00:56.119Z,35.40
2018-07-23T01:03:24.847Z,34.10
2018-07-23T01:05:53.424Z,33.43
2018-07-23T01:08:21.999Z,32.47
2018-07-23T01:10:51.202Z,35.43
2018-07-23T01:13:20.235Z,31.87
2018-07-23T01:15:48.787Z,33.50
2018-07-23T01:18:17.357Z,35.83
2018-07-23T01:20:45.935Z,35.97
2018-07-23T01:23:14.491Z,33.37
2018-07-23T01:25:43.405Z,33.50
2018-07-23T01:28:11.984Z,32.83
2018-07-23T01:30:40.629Z,30.00
2018-07-23T01:33:09.528Z,32.17
2018-07-23T01:35:38.357Z,30.47
2018-07-23T01:38:07.117Z,29.40
2018-07-23T01:40:35.801Z,31.60
2018-07-23T01:43:04.379Z,30.73
2018-07-23T01:45:32.952Z,31.23
2018-07-23T01:48:01.638Z,32.60
2018-07-23T01:50:30.480Z,32.90
2018-07-23T01:52:59.013Z,30.80
2018-07-23T01:55:27.740Z,31.40
2018-07-23T01:57:56.328Z,32.33
2018-07-23T02:00:24.890Z,30.80
2018-07-23T02:02:53.903Z,31.97
2018-07-23T02:05:22.491Z,32.30
2018-07-23T02:07:51.080Z,31.90
2018-07-23T02:10:19.764Z,33.50
2018-07-23T02:12:48.339Z,35.00
2018-07-23T02:15:16.871Z,34.43
2018-07-23T02:17:45.583Z,33.87
2018-07-23T02:20:14.135Z,32.60
2018-07-23T02:22:42.724Z,32.70
2018-07-23T02:25:11.445Z,33.87
2018-07-23T02:27:40.009Z,30.30
2018-07-23T02:30:08.609Z,28.20
2018-07-23T02:32:37.327Z,30.97
2018-07-23T02:35:06.204Z,31.10
2018-07-23T02:37:34.772Z,29.23
2018-07-23T02:40:03.496Z,27.80
2018-07-23T02:42:32.048Z,27.97
2018-07-23T02:45:00.765Z,26.90
2018-07-23T02:47:29.399Z,25.70
2018-07-23T02:49:57.959Z,28.77
2018-07-23T02:52:29.569Z,26.13
2018-07-23T02:54:58.232Z,28.00
2018-07-23T02:57:26.784Z,27.30
2018-07-23T02:59:55.788Z,26.87
2018-07-23T03:02:25.084Z,26.00
2018-07-23T03:04:53.620Z,27.37
2018-07-23T03:07:22.304Z,27.30
2018-07-23T03:09:50.848Z,27.83
2018-07-23T03:12:19.387Z,26.40
2018-07-23T03:14:48.107Z,26.70
2018-07-23T03:17:16.663Z,28.60
2018-07-23T03:19:45.225Z,27.43
2018-07-23T03:22:13.881Z,27.40
2018-07-23T03:24:42.432Z,28.17
2018-07-23T03:27:10.973Z,30.07
2018-07-23T03:29:39.560Z,28.83
2018-07-23T03:32:08.169Z,27.20
2018-07-23T03:34:36.835Z,27.07
2018-07-23T03:37:05.411Z,27.50
2018-07-23T03:39:33.991Z,26.97
2018-07-23T03:42:02.599Z,27.47
2018-07-23T03:44:31.176Z,27.27
2018-07-23T03:46:59.838Z,27.50
2018-07-23T03:49:28.407Z,27.30
2018-07-23T03:51:57.300Z,29.50
2018-07-23T03:54:25.872Z,27.30
2018-07-23T03:56:54.464Z,29.13
2018-07-23T03:59:23.068Z,29.13
2018-07-23T04:01:51.656Z,27.37
2018-07-23T04:04:20.236Z,29.50
2018-07-23T04:06:49.556Z,29.70
2018-07-23T04:09:18.162Z,27.90
2018-07-23T04:11:46.772Z,31.27
2018-07-23T04:14:15.732Z,30.00
2018-07-23T04:16:44.318Z,28.90
2018-07-23T04:19:12.913Z,28.57
2018-07-23T04:21:41.495Z,30.70
2018-07-23T04:24:10.032Z,31.33
2018-07-23T04:26:38.579Z,31.70
2018-07-23T04:29:07.204Z,30.00
2018-07-23T04:31:35.851Z,32.30
2018-07-23T04:34:04.460Z,32.27
2018-07-23T04:36:33.139Z,31.13
2018-07-23T04:39:01.704Z,32.20
2018-07-23T04:41:30.275Z,29.57
2018-07-23T04:43:58.955Z,30.87
2018-07-23T04:46:27.520Z,31.40
2018-07-23T04:48:56.195Z,28.33
2018-07-23T04:51:25.056Z,30.10
2018-07-23T04:53:53.621Z,29.40
2018-07-23T04:56:22.159Z,29.37
2018-07-23T04:58:50.807Z,29.63
2018-07-23T05:01:19.360Z,29.10
2018-07-23T05:03:47.928Z,27.53
2018-07-23T05:06:16.803Z,29.57
2018-07-23T05:08:45.430Z,30.37
2018-07-23T05:11:13.987Z,29.37
2018-07-23T05:13:42.700Z,29.37
2018-07-23T05:16:11.262Z,31.20
2018-07-23T05:18:39.825Z,31.10
2018-07-23T05:21:08.778Z,31.70
2018-07-23T05:23:37.428Z,30.27
2018-07-23T05:26:06.380Z,29.60
2018-07-23T05:28:34.988Z,27.20
2018-07-23T05:31:03.535Z,29.53
2018-07-23T05:33:32.108Z,28.07
2018-07-23T05:36:00.796Z,26.27
2018-07-23T05:38:29.433Z,27.17
2018-07-23T05:40:58.004Z,28.20
2018-07-23T05:43:26.640Z,28.10
2018-07-23T05:45:55.237Z,28.73
2018-07-23T05:48:24.337Z,29.60
2018-07-23T05:50:53.079Z,28.53
2018-07-23T05:53:21.631Z,30.47
2018-07-23T05:55:50.175Z,30.77
2018-07-23T05:58:19.084Z,29.17
2018-07-23T06:00:48.583Z,31.57
2018-07-23T06:03:17.189Z,31.77
2018-07-23T06:05:45.824Z,30.00
2018-07-23T06:08:14.391Z,29.00
2018-07-23T06:10:43.778Z,31.00
2018-07-23T06:13:12.577Z,29.50
2018-07-23T06:15:41.131Z,30.50
2018-07-23T06:18:09.819Z,29.07
2018-07-23T06:20:38.794Z,28.87
2018-07-23T06:23:08.825Z,30.37
2018-07-23T06:25:39.745Z,29.43
2018-07-23T06:28:09.668Z,28.77
2018-07-23T06:30:39.509Z,32.40
2018-07-23T06:33:09.360Z,28.07
2018-07-23T06:35:39.351Z,31.00
2018-07-23T06:38:08.640Z,29.90
2018-07-23T06:40:38.045Z,30.77
2018-07-23T06:43:07.203Z,30.63
2018-07-23T06:45:35.892Z,30.07
2018-07-23T06:48:04.608Z,28.93
2018-07-23T06:50:34.596Z,27.83
2018-07-23T06:53:05.223Z,29.43
2018-07-23T06:55:34.968Z,27.50
2018-07-23T06:58:05.061Z,29.70
2018-07-23T07:00:34.101Z,27.37
2018-07-23T07:03:08.396Z,27.77
2018-07-23T07:05:38.357Z,26.73
2018-07-23T07:08:07.468Z,26.40
2018-07-23T07:10:36.951Z,27.90
2018-07-23T07:13:09.334Z,28.63
2018-07-23T07:15:41.084Z,28.00
2018-07-23T07:18:11.064Z,28.30
2018-07-23T07:20:39.934Z,28.97
2018-07-23T07:23:08.597Z,29.13
2018-07-23T07:25:37.156Z,29.90
2018-07-23T07:28:07.096Z,29.10
2018-07-23T07:30:35.872Z,29.17
2018-07-23T07:33:07.240Z,30.57
2018-07-23T07:35:37.195Z,28.40
2018-07-23T07:38:05.851Z,30.60
2018-07-23T07:40:34.423Z,30.37
2018-07-23T07:43:03.147Z,29.63
2018-07-23T07:45:33.633Z,28.00
2018-07-23T07:48:02.370Z,27.37
2018-07-23T07:50:30.960Z,26.20
2018-07-23T07:52:59.529Z,27.63
2018-07-23T07:55:28.382Z,28.80
2018-07-23T07:57:57.096Z,25.47
2018-07-23T08:00:27.868Z,23.93
2018-07-23T08:02:58.488Z,26.00
2018-07-23T08:05:27.203Z,23.77
2018-07-23T08:07:55.835Z,24.07
2018-07-23T08:10:24.399Z,25.17
2018-07-23T08:12:53.200Z,23.90
2018-07-23T08:15:24.251Z,24.27
2018-07-23T08:17:52.960Z,24.50
2018-07-23T08:20:21.576Z,24.47
2018-07-23T08:22:51.257Z,25.20
2018-07-23T08:25:19.835Z,24.20
2018-07-23T08:27:50.494Z,22.37
2018-07-23T08:30:19.216Z,22.33
2018-07-23T08:32:47.804Z,24.13
2018-07-23T08:35:17.500Z,27.23
2018-07-23T08:37:47.700Z,25.07
2018-07-23T08:40:16.245Z,26.23
2018-07-23T08:42:45.068Z,23.00
2018-07-23T08:45:13.812Z,26.03
2018-07-23T08:47:42.373Z,23.80
2018-07-23T08:50:12.730Z,24.00
2018-07-23T08:52:43.708Z,23.07
2018-07-23T08:55:12.408Z,28.60
2018-07-23T08:57:41.028Z,26.70
2018-07-23T09:00:10.236Z,27.27
2018-07-23T09:02:46.097Z,26.87
2018-07-23T09:05:15.163Z,24.73
2018-07-23T09:07:51.288Z,26.67
2018-07-23T09:10:25.648Z,26.57
2018-07-23T09:12:57.013Z,27.17
2018-07-23T09:15:26.088Z,25.43
2018-07-23T09:17:55.196Z,25.70
2018-07-23T09:20:25.587Z,25.00
2018-07-23T09:22:54.143Z,25.83
2018-07-23T09:25:22.835Z,23.43
2018-07-23T09:27:51.557Z,25.50
2018-07-23T09:30:55.972Z,24.23
2018-07-23T09:33:25.428Z,22.20
2018-07-23T09:35:54.591Z,21.03
2018-07-23T09:38:23.698Z,21.73
2018-07-23T09:40:52.999Z,19.87
2018-07-23T09:43:21.597Z,19.70
2018-07-23T09:45:50.127Z,19.90
2018-07-23T09:48:18.835Z,20.20
2018-07-23T09:50:48.276Z,21.20
2018-07-23T09:53:17.074Z,20.87
2018-07-23T09:55:45.741Z,17.50
2018-07-23T09:58:14.307Z,19.27
2018-07-23T10:00:48.379Z,18.30
2018-07-23T10:03:17.950Z,20.43
2018-07-23T10:05:46.403Z,20.27
2018-07-23T10:08:15.018Z,24.53
2018-07-23T10:10:43.583Z,22.30
2018-07-23T10:13:12.155Z,23.13
2018-07-23T10:15:40.863Z,24.20
2018-07-23T10:18:09.472Z,18.20
2018-07-23T10:20:38.074Z,18.60
2018-07-23T10:23:06.791Z,20.20
2018-07-23T10:25:35.488Z,22.30
2018-07-23T10:28:04.079Z,18.50
2018-07-23T10:30:32.999Z,17.37
2018-07-23T10:33:01.580Z,18.73
2018-07-23T10:35:30.133Z,21.90
2018-07-23T10:37:58.883Z,18.00
2018-07-23T10:40:27.427Z,18.07
2018-07-23T10:42:55.973Z,18.33
2018-07-23T10:45:24.876Z,17.40
2018-07-23T10:47:58.669Z,16.83
2018-07-23T10:50:27.399Z,18.77
2018-07-23T10:52:56.085Z,15.00
2018-07-23T10:55:24.647Z,15.47
2018-07-23T10:57:53.377Z,11.90
2018-07-23T11:00:21.968Z,15.80
2018-07-23T11:02:50.567Z,16.57
2018-07-23T11:05:19.316Z,14.60
2018-07-23T11:07:48.008Z,14.40
2018-07-23T11:10:16.635Z,12.00
2018-07-23T11:12:45.483Z,12.07
2018-07-23T11:15:14.096Z,12.93
2018-07-23T11:17:42.682Z,10.53
2018-07-23T11:20:12.476Z,9.68
2018-07-23T11:22:41.736Z,10.30
2018-07-23T11:25:38.810Z,10.60
2018-07-23T11:27:38.988Z,12.25
2018-07-23T11:30:07.895Z,11.20
2018-07-23T11:32:36.899Z,9.75
2018-07-23T11:35:05.712Z,12.00
2018-07-23T11:37:34.506Z,11.70
2018-07-23T11:40:03.075Z,11.05
2018-07-23T11:42:31.969Z,10.72
2018-07-23T11:45:00.640Z,10.10
2018-07-23T11:47:29.303Z,9.30
2018-07-23T11:49:58.036Z,10.00
2018-07-23T11:52:26.635Z,11.12
2018-07-23T11:54:55.184Z,8.95
2018-07-23T11:57:23.760Z,8.38
2018-07-23T11:59:52.335Z,7.58
2018-07-23T12:02:20.988Z,8.05
2018-07-23T12:04:49.684Z,9.23
2018-07-23T12:07:18.236Z,8.88
2018-07-23T12:09:46.917Z,8.90
2018-07-23T12:12:15.514Z,9.23
2018-07-23T12:14:44.060Z,10.30
2018-07-23T12:17:12.767Z,10.50
2018-07-23T12:19:41.438Z,9.88
2018-07-23T12:22:10.005Z,11.10
2018-07-23T12:24:38.576Z,10.55
2018-07-23T12:27:07.195Z,13.27
2018-07-23T12:29:35.747Z,12.67
2018-07-23T12:32:04.300Z,10.33
2018-07-23T12:34:33.040Z,9.17
2018-07-23T12:37:01.589Z,9.67
2018-07-23T12:39:30.239Z,10.40
2018-07-23T12:41:58.923Z,8.63
2018-07-23T12:44:27.456Z,9.78
2018-07-23T12:46:56.108Z,9.40
2018-07-23T12:49:24.693Z,9.65
2018-07-23T12:51:53.226Z,9.80
2018-07-23T12:54:22.144Z,10.68
2018-07-23T12:56:50.832Z,10.88
2018-07-23T12:59:19.524Z,9.95
2018-07-23T13:01:48.083Z,11.03
2018-07-23T13:04:16.794Z,10.45
2018-07-23T13:06:45.464Z,10.85
2018-07-23T13:09:14.141Z,10.82
2018-07-23T13:11:42.728Z,9.40
2018-07-23T13:14:11.279Z,11.28
2018-07-23T13:16:39.815Z,9.70
2018-07-23T13:19:08.504Z,9.63
2018-07-23T13:21:37.077Z,10.90
2018-07-23T13:24:05.864Z,10.07
2018-07-23T13:26:34.792Z,10.60
2018-07-23T13:29:03.506Z,11.13
2018-07-23T13:31:32.269Z,11.03
2018-07-23T13:34:00.878Z,10.30
2018-07-23T13:36:29.439Z,9.87
2018-07-23T13:38:58.007Z,11.60
2018-07-23T13:41:26.761Z,11.80
2018-07-23T13:43:55.337Z,11.20
2018-07-23T13:46:23.942Z,9.83
2018-07-23T13:48:52.520Z,10.07
2018-07-23T13:51:21.055Z,9.50
2018-07-23T13:53:49.615Z,10.10
2018-07-23T13:56:18.200Z,10.90
2018-07-23T13:58:46.761Z,11.57
2018-07-23T14:01:15.354Z,11.40
2018-07-23T14:03:43.937Z,10.60
2018-07-23T14:06:12.623Z,9.97
2018-07-23T14:08:41.188Z,9.23
2018-07-23T14:11:09.819Z,11.97
2018-07-23T14:13:38.380Z,12.27
2018-07-23T14:16:06.978Z,12.87
2018-07-23T14:18:35.584Z,12.97
2018-07-23T14:21:04.176Z,10.73
2018-07-23T14:23:32.943Z,12.07
2018-07-23T14:26:01.664Z,9.40
2018-07-23T14:28:30.254Z,10.97
2018-07-23T14:30:58.805Z,11.90
2018-07-23T14:33:27.387Z,12.30
2018-07-23T14:35:55.976Z,13.57
2018-07-23T14:38:24.755Z,13.47
2018-07-23T14:40:53.465Z,12.77
2018-07-23T14:43:22.057Z,12.00
2018-07-23T14:45:51.089Z,12.70
2018-07-23T14:48:20.151Z,13.97
2018-07-23T14:50:48.708Z,12.10
2018-07-23T14:53:17.295Z,12.03
2018-07-23T14:55:46.237Z,12.70
2018-07-23T14:58:14.780Z,12.60
2018-07-23T15:00:43.371Z,13.67
2018-07-23T15:24:11.752Z,14.03
2018-07-23T15:26:40.457Z,14.10
2018-07-23T15:29:09.260Z,14.33
2018-07-23T15:31:38.223Z,14.23
2018-07-23T15:34:07.363Z,14.60
2018-07-23T15:36:36.308Z,15.00
2018-07-23T15:39:07.739Z,14.83
2018-07-23T15:41:36.816Z,13.70
2018-07-23T15:44:05.739Z,12.90
2018-07-23T15:46:34.539Z,14.00
2018-07-23T15:49:04.031Z,13.17
2018-07-23T15:51:32.633Z,13.27
2018-07-23T15:54:01.508Z,15.10
2018-07-23T15:56:30.144Z,13.57
2018-07-23T15:58:59.068Z,14.07
2018-07-23T16:01:27.823Z,14.10
2018-07-23T16:03:56.507Z,12.90
2018-07-23T16:06:25.543Z,15.30
2018-07-23T16:08:54.434Z,13.37
2018-07-23T16:11:23.308Z,14.00
2018-07-23T16:13:52.340Z,14.80
2018-07-23T16:16:21.159Z,14.10
2018-07-23T16:18:50.229Z,12.87
2018-07-23T16:21:18.852Z,14.20
2018-07-23T16:23:47.857Z,14.97
2018-07-23T16:26:16.883Z,14.53
2018-07-23T16:28:45.615Z,14.20
2018-07-23T16:31:14.479Z,13.40
2018-07-23T16:33:43.125Z,13.13
2018-07-23T16:36:11.940Z,14.20
2018-07-23T16:38:41.135Z,14.57
2018-07-23T16:41:09.787Z,13.90
2018-07-23T16:43:39.203Z,12.40
2018-07-23T16:46:08.844Z,13.40
2018-07-23T16:48:37.519Z,13.27
2018-07-23T16:51:06.972Z,13.40
2018-07-23T16:53:35.716Z,14.10
2018-07-23T16:56:05.125Z,13.83
2018-07-23T16:58:35.076Z,13.43
2018-07-23T17:01:03.747Z,14.53
2018-07-23T17:03:32.342Z,12.80
2018-07-23T17:06:00.979Z,13.40
2018-07-23T17:08:29.717Z,13.20
2018-07-23T17:10:58.603Z,13.20
2018-07-23T17:13:27.745Z,12.50
2018-07-23T17:15:56.610Z,14.20
2018-07-23T17:18:25.546Z,13.50
2018-07-23T17:20:54.323Z,13.40
2018-07-23T17:23:23.072Z,13.30
2018-07-23T17:25:51.641Z,13.17
2018-07-23T17:28:20.291Z,13.90
2018-07-23T17:30:49.195Z,14.57
2018-07-23T17:33:17.868Z,13.37
2018-07-23T17:35:46.783Z,13.40
2018-07-23T17:38:15.952Z,13.40
2018-07-23T17:40:44.705Z,14.10
2018-07-23T17:43:13.477Z,14.10
2018-07-23T17:45:42.679Z,13.77
2018-07-23T17:48:11.535Z,12.70
2018-07-23T17:50:40.172Z,13.70
2018-07-23T17:53:08.784Z,14.27
2018-07-23T17:55:37.739Z,14.10
2018-07-23T17:58:06.928Z,14.00
2018-07-23T18:00:35.564Z,14.20
2018-07-23T18:03:04.444Z,13.13
2018-07-23T18:05:33.265Z,12.87
2018-07-23T18:08:01.816Z,13.43
2018-07-23T18:10:31.017Z,13.20
2018-07-23T18:12:59.793Z,13.50
2018-07-23T18:15:28.429Z,12.37
2018-07-23T18:17:57.117Z,13.33
2018-07-23T18:20:25.719Z,13.93
2018-07-23T18:22:54.720Z,13.40
2018-07-23T18:25:23.440Z,13.23
2018-07-23T18:27:52.161Z,13.30
2018-07-23T18:30:21.431Z,12.80
2018-07-23T18:32:50.048Z,12.53
2018-07-23T18:35:18.904Z,12.77
2018-07-23T18:37:47.594Z,12.93
2018-07-23T18:40:16.890Z,15.43
2018-07-23T18:42:46.572Z,12.60
2018-07-23T18:45:15.567Z,14.50
2018-07-23T18:47:44.725Z,13.53
2018-07-23T18:50:13.959Z,12.93
2018-07-23T18:52:42.772Z,12.97
2018-07-23T18:55:11.736Z,13.60
2018-07-23T18:57:40.416Z,13.20
2018-07-23T19:00:09.925Z,13.23
2018-07-23T19:02:39.152Z,12.93
2018-07-23T19:05:08.312Z,12.43
2018-07-23T19:07:38.343Z,13.20
2018-07-23T19:10:10.159Z,13.43
2018-07-23T19:12:39.319Z,13.90
2018-07-23T19:15:08.541Z,13.50
2018-07-23T19:17:38.407Z,13.20
2018-07-23T19:20:07.305Z,14.63
2018-07-23T19:22:36.115Z,15.10
2018-07-23T19:25:05.628Z,14.17
2018-07-23T19:27:34.590Z,14.30
2018-07-23T19:30:03.655Z,14.10
2018-07-23T19:32:32.900Z,13.70
2018-07-23T19:35:03.545Z,14.27
2018-07-23T19:37:32.178Z,14.90
2018-07-23T19:40:00.992Z,17.10
2018-07-23T19:42:29.701Z,15.47
2018-07-23T19:44:58.895Z,15.03
2018-07-23T19:47:28.100Z,15.90
2018-07-23T19:49:56.980Z,17.83
2018-07-23T19:52:26.036Z,15.87
2018-07-23T19:54:54.731Z,15.27
2018-07-23T19:57:23.607Z,16.57
2018-07-23T19:59:53.443Z,16.97
2018-07-23T20:02:22.707Z,16.30
2018-07-23T20:04:52.564Z,18.57
2018-07-23T20:07:22.540Z,15.90
2018-07-23T20:09:52.924Z,18.00
2018-07-23T20:12:23.024Z,16.63
2018-07-23T20:14:52.800Z,18.57
2018-07-23T20:17:22.382Z,16.60
2018-07-23T20:19:52.677Z,17.00
2018-07-23T20:22:21.808Z,18.23
2018-07-23T20:24:50.477Z,18.43
2018-07-23T20:27:19.751Z,18.40
2018-07-23T20:29:48.474Z,18.47
2018-07-23T20:32:17.144Z,20.67
2018-07-23T20:34:46.004Z,17.77
2018-07-23T20:37:14.648Z,18.30
2018-07-23T20:39:43.570Z,18.23
2018-07-23T20:42:12.693Z,19.00
2018-07-23T20:44:41.938Z,20.83
2018-07-23T20:47:10.496Z,21.70
2018-07-23T20:49:39.360Z,20.70
2018-07-23T20:52:08.008Z,20.20
2018-07-23T20:54:37.040Z,20.53
2018-07-23T20:57:06.569Z,20.10
2018-07-23T20:59:35.308Z,21.00
2018-07-23T21:02:04.407Z,21.20
2018-07-23T21:04:33.211Z,22.53
2018-07-23T21:07:01.855Z,22.83
2018-07-23T21:09:31.560Z,20.87
2018-07-23T21:12:00.178Z,22.37
2018-07-23T21:14:28.904Z,22.07
2018-07-23T21:16:57.579Z,22.00
2018-07-23T21:19:26.565Z,24.27
2018-07-23T21:21:55.428Z,24.47
2018-07-23T21:24:24.098Z,24.07
2018-07-23T21:26:53.204Z,21.40
2018-07-23T21:29:22.212Z,24.10
2018-07-23T21:31:51.027Z,23.07
2018-07-23T21:34:19.869Z,22.10
2018-07-23T21:36:48.548Z,23.13
2018-07-23T21:39:17.139Z,23.80
2018-07-23T21:41:46.075Z,22.40
2018-07-23T21:44:15.548Z,22.03
2018-07-23T21:46:44.216Z,21.80
2018-07-23T21:49:13.255Z,22.83
2018-07-23T21:51:42.043Z,23.03
2018-07-23T21:54:10.890Z,26.07
2018-07-23T21:56:39.703Z,23.77
2018-07-23T21:59:08.424Z,26.20
2018-07-23T22:01:37.119Z,25.57
2018-07-23T22:04:05.860Z,25.97
2018-07-23T22:06:34.511Z,26.10
2018-07-23T22:09:03.704Z,26.03
2018-07-23T22:11:32.469Z,26.40
2018-07-23T22:14:01.080Z,26.47
2018-07-23T22:16:29.894Z,27.30
2018-07-23T22:18:58.659Z,26.60
2018-07-23T22:21:27.324Z,29.80
2018-07-23T22:23:56.268Z,26.53
2018-07-23T22:26:25.412Z,26.17
2018-07-23T22:28:54.161Z,27.30
2018-07-23T22:31:22.942Z,27.13
2018-07-23T22:33:51.815Z,30.30
2018-07-23T22:36:20.544Z,28.30
2018-07-23T22:38:49.600Z,27.93
2018-07-23T22:41:18.320Z,26.93
2018-07-23T22:43:46.935Z,29.17
2018-07-23T22:46:15.533Z,28.60
2018-07-23T22:48:44.263Z,29.87
2018-07-23T22:51:13.211Z,28.50
2018-07-23T22:53:41.956Z,28.67
2018-07-23T22:56:10.696Z,28.13
2018-07-23T22:58:39.704Z,27.00
2018-07-23T23:01:08.399Z,29.67
2018-07-23T23:03:37.079Z,28.03
2018-07-23T23:06:05.748Z,26.13
2018-07-23T23:08:34.584Z,25.50
2018-07-23T23:11:03.343Z,29.43
2018-07-23T23:13:32.763Z,26.80
2018-07-23T23:16:01.398Z,28.20
2018-07-23T23:18:30.148Z,28.50
2018-07-23T23:20:58.902Z,28.50
2018-07-23T23:23:27.999Z,28.50
2018-07-23T23:25:57.288Z,29.23
2018-07-23T23:28:26.120Z,27.77
2018-07-23T23:30:54.883Z,30.77
2018-07-23T23:33:23.584Z,27.90
2018-07-23T23:35:52.491Z,29.27
2018-07-23T23:38:21.214Z,28.67
2018-07-23T23:40:49.939Z,29.33
2018-07-23T23:43:18.709Z,31.47
2018-07-23T23:45:47.438Z,28.10
2018-07-23T23:48:16.609Z,28.60
2018-07-23T23:50:45.568Z,30.87
2018-07-23T23:53:14.512Z,29.03
2018-07-23T23:55:43.600Z,29.40
2018-07-23T23:58:12.349Z,30.67
